createdAt,value
2018-11-21T00:00:48.929Z,0.00
2018-11-21T00:01:48.916Z,0.00
2018-11-21T00:02:48.908Z,0.00
2018-11-21T00:03:48.935Z,0.00
2018-11-21T00:04:48.884Z,0.00
2018-11-21T00:05:48.888Z,0.00
2018-11-21T00:06:48.873Z,0.00
2018-11-21T00:07:48.857Z,0.00
2018-11-21T00:08:48.875Z,0.00
2018-11-21T00:09:48.868Z,0.00
2018-11-21T00:10:48.820Z,0.00
2018-11-21T00:11:48.814Z,0.00
2018-11-21T00:12:48.836Z,0.00
2018-11-21T00:13:48.785Z,0.00
2018-11-21T00:14:48.822Z,0.00
2018-11-21T00:15:48.763Z,0.00
2018-11-21T00:16:48.754Z,0.00
2018-11-21T00:17:48.759Z,0.00
2018-11-21T00:18:48.744Z,0.00
2018-11-21T00:19:48.763Z,0.00
2018-11-21T00:20:48.721Z,0.00
2018-11-21T00:21:48.697Z,0.00
2018-11-21T00:22:48.686Z,0.00
2018-11-21T00:23:48.684Z,0.00
2018-11-21T00:24:48.716Z,0.00
2018-11-21T00:25:48.684Z,0.00
2018-11-21T00:26:48.667Z,0.00
2018-11-21T00:27:48.640Z,0.00
2018-11-21T00:28:48.642Z,0.00
2018-11-21T00:29:48.660Z,0.00
2018-11-21T00:30:48.622Z,0.00
2018-11-21T00:31:48.610Z,0.00
2018-11-21T00:32:48.629Z,0.00
2018-11-21T00:33:48.572Z,0.00
2018-11-21T00:34:48.572Z,0.00
2018-11-21T00:35:48.552Z,0.00
2018-11-21T00:36:48.539Z,0.00
2018-11-21T00:37:48.574Z,0.00
2018-11-21T00:38:48.518Z,0.00
2018-11-21T00:39:48.516Z,0.00
2018-11-21T00:40:48.515Z,0.00
2018-11-21T00:41:48.487Z,0.00
2018-11-21T00:42:48.514Z,0.00
2018-11-21T00:43:48.468Z,0.00
2018-11-21T00:44:48.456Z,0.00
2018-11-21T00:45:48.446Z,0.00
2018-11-21T00:46:48.450Z,0.00
2018-11-21T00:47:48.464Z,0.00
2018-11-21T00:48:48.460Z,0.00
2018-11-21T00:49:48.398Z,0.00
2018-11-21T00:50:48.394Z,0.00
2018-11-21T00:51:48.384Z,0.00
2018-11-21T00:52:48.383Z,0.00
2018-11-21T00:53:48.410Z,0.00
2018-11-21T00:54:48.367Z,0.00
2018-11-21T00:55:48.340Z,0.00
2018-11-21T00:56:48.329Z,0.00
2018-11-21T00:57:48.317Z,0.00
2018-11-21T00:58:48.345Z,0.00
2018-11-21T00:59:48.327Z,0.00
2018-11-21T01:00:48.295Z,0.00
2018-11-21T01:01:48.275Z,0.00
2018-11-21T01:02:48.267Z,0.00
2018-11-21T01:03:48.295Z,0.00
2018-11-21T01:04:48.245Z,0.00
2018-11-21T01:05:48.245Z,0.00
2018-11-21T01:06:48.235Z,0.00
2018-11-21T01:07:48.213Z,0.00
2018-11-21T01:08:48.245Z,0.00
2018-11-21T01:09:48.195Z,0.00
2018-11-21T01:10:48.217Z,0.00
2018-11-21T01:11:48.180Z,0.00
2018-11-21T01:12:48.169Z,0.00
2018-11-21T01:13:48.204Z,0.00
2018-11-21T01:14:48.150Z,0.00
2018-11-21T01:15:48.132Z,0.00
2018-11-21T01:16:48.127Z,0.00
2018-11-21T01:17:48.111Z,0.00
2018-11-21T01:18:48.128Z,0.00
2018-11-21T01:19:48.105Z,0.00
2018-11-21T01:20:48.075Z,0.00
2018-11-21T01:21:48.060Z,0.00
2018-11-21T01:22:48.059Z,0.00
2018-11-21T01:23:48.057Z,0.00
2018-11-21T01:24:48.047Z,0.00
2018-11-21T01:25:48.033Z,0.00
2018-11-21T01:26:48.020Z,0.00
2018-11-21T01:27:47.997Z,0.00
2018-11-21T01:28:48.001Z,0.00
2018-11-21T01:29:48.032Z,0.00
2018-11-21T01:30:47.970Z,0.00
2018-11-21T01:31:47.958Z,0.00
2018-11-21T01:32:47.967Z,0.00
2018-11-21T01:33:47.936Z,0.00
2018-11-21T01:34:47.962Z,0.00
2018-11-21T01:35:47.914Z,0.00
2018-11-21T01:36:47.901Z,0.00
2018-11-21T01:37:47.903Z,0.00
2018-11-21T01:38:47.885Z,0.00
2018-11-21T01:39:47.903Z,0.00
2018-11-21T01:40:47.865Z,0.00
2018-11-21T01:41:47.849Z,0.00
2018-11-21T01:42:47.839Z,0.00
2018-11-21T01:43:47.849Z,0.00
2018-11-21T01:44:47.872Z,0.00
2018-11-21T01:45:47.807Z,0.00
2018-11-21T01:46:47.798Z,0.00
2018-11-21T01:47:47.786Z,0.00
2018-11-21T01:48:47.839Z,0.00
2018-11-21T01:49:47.765Z,0.00
2018-11-21T01:50:47.824Z,0.00
2018-11-21T01:51:47.751Z,0.00
2018-11-21T01:52:47.748Z,0.00
2018-11-21T01:53:47.729Z,0.00
2018-11-21T01:54:47.714Z,0.00
2018-11-21T01:55:47.739Z,0.00
2018-11-21T01:56:47.701Z,0.00
2018-11-21T01:57:47.698Z,0.00
2018-11-21T01:58:47.668Z,0.00
2018-11-21T01:59:47.660Z,0.00
2018-11-21T02:00:47.682Z,0.00
2018-11-21T02:01:47.675Z,0.00
2018-11-21T02:02:47.640Z,0.00
2018-11-21T02:03:47.628Z,0.00
2018-11-21T02:04:47.603Z,0.00
2018-11-21T02:05:47.626Z,0.00
2018-11-21T02:06:47.600Z,0.00
2018-11-21T02:07:47.583Z,0.00
2018-11-21T02:08:47.563Z,0.00
2018-11-21T02:09:47.555Z,0.00
2018-11-21T02:10:47.591Z,0.00
2018-11-21T02:11:47.555Z,0.00
2018-11-21T02:12:47.912Z,0.00
2018-11-21T02:13:47.553Z,0.00
2018-11-21T02:14:47.500Z,0.00
2018-11-21T02:15:47.491Z,0.00
2018-11-21T02:16:47.494Z,0.00
2018-11-21T02:17:47.468Z,0.00
2018-11-21T02:18:47.496Z,0.00
2018-11-21T02:19:47.464Z,0.00
2018-11-21T02:20:47.433Z,0.00
2018-11-21T02:21:47.427Z,0.00
2018-11-21T02:22:47.431Z,0.00
2018-11-21T02:23:47.439Z,0.00
2018-11-21T02:24:47.402Z,0.00
2018-11-21T02:25:47.385Z,0.00
2018-11-21T02:26:47.375Z,0.00
2018-11-21T02:27:47.372Z,0.00
2018-11-21T02:28:47.405Z,0.00
2018-11-21T02:29:47.348Z,0.00
2018-11-21T02:30:47.334Z,0.00
2018-11-21T02:31:47.329Z,0.00
2018-11-21T02:32:47.308Z,0.00
2018-11-21T02:33:47.338Z,0.00
2018-11-21T02:34:47.318Z,0.00
2018-11-21T02:35:47.325Z,0.00
2018-11-21T02:36:47.287Z,0.00
2018-11-21T02:37:47.264Z,0.00
2018-11-21T02:38:47.251Z,0.00
2018-11-21T02:39:47.239Z,0.00
2018-11-21T02:40:47.262Z,0.00
2018-11-21T02:41:47.228Z,0.00
2018-11-21T02:42:47.221Z,0.00
2018-11-21T02:43:47.205Z,0.00
2018-11-21T02:44:47.194Z,0.00
2018-11-21T02:45:47.219Z,0.00
2018-11-21T02:46:47.187Z,0.00
2018-11-21T02:47:47.171Z,0.00
2018-11-21T02:48:47.153Z,0.00
2018-11-21T02:49:47.143Z,0.00
2018-11-21T02:50:47.163Z,0.00
2018-11-21T02:51:47.128Z,0.00
2018-11-21T02:52:47.117Z,0.00
2018-11-21T02:53:47.095Z,0.00
2018-11-21T02:54:47.082Z,0.00
2018-11-21T02:55:47.115Z,0.00
2018-11-21T02:56:47.097Z,0.00
2018-11-21T02:57:47.050Z,0.00
2018-11-21T02:58:47.096Z,0.00
2018-11-21T02:59:47.025Z,0.00
2018-11-21T03:00:47.024Z,0.00
2018-11-21T03:01:47.008Z,0.00
2018-11-21T03:02:47.002Z,0.00
2018-11-21T03:03:47.026Z,0.00
2018-11-21T03:04:46.982Z,0.00
2018-11-21T03:05:46.970Z,0.00
2018-11-21T03:06:47.016Z,0.00
2018-11-21T03:07:46.963Z,0.00
2018-11-21T03:08:46.939Z,0.00
2018-11-21T03:09:46.934Z,0.00
2018-11-21T03:10:46.912Z,0.00
2018-11-21T03:11:46.942Z,0.00
2018-11-21T03:12:46.919Z,0.00
2018-11-21T03:13:46.894Z,0.00
2018-11-21T03:14:46.887Z,0.00
2018-11-21T03:15:46.882Z,0.00
2018-11-21T03:16:46.904Z,0.00
2018-11-21T03:17:46.847Z,0.00
2018-11-21T03:18:46.833Z,0.00
2018-11-21T03:19:46.858Z,0.00
2018-11-21T03:20:46.812Z,0.00
2018-11-21T03:21:46.795Z,0.00
2018-11-21T03:22:46.818Z,0.00
2018-11-21T03:23:46.772Z,0.00
2018-11-21T03:24:46.810Z,0.00
2018-11-21T03:25:46.759Z,0.00
2018-11-21T03:26:46.745Z,0.00
2018-11-21T03:27:46.734Z,0.00
2018-11-21T03:28:46.737Z,0.00
2018-11-21T03:29:46.763Z,0.00
2018-11-21T03:30:46.741Z,0.00
2018-11-21T03:31:46.689Z,0.00
2018-11-21T03:32:46.686Z,0.00
2018-11-21T03:33:46.672Z,0.00
2018-11-21T03:34:46.660Z,0.00
2018-11-21T03:35:46.702Z,0.00
2018-11-21T03:36:46.655Z,0.00
2018-11-21T03:37:46.649Z,0.00
2018-11-21T03:38:46.615Z,0.00
2018-11-21T03:39:46.609Z,0.00
2018-11-21T03:40:46.628Z,0.00
2018-11-21T03:41:46.598Z,0.00
2018-11-21T03:42:46.589Z,0.00
2018-11-21T03:43:46.568Z,0.00
2018-11-21T03:44:46.569Z,0.00
2018-11-21T03:45:46.586Z,0.00
2018-11-21T03:46:46.553Z,0.00
2018-11-21T03:47:46.536Z,0.00
2018-11-21T03:48:46.543Z,0.00
2018-11-21T03:49:46.521Z,0.00
2018-11-21T03:50:46.491Z,0.00
2018-11-21T03:51:46.537Z,0.00
2018-11-21T03:52:46.473Z,0.00
2018-11-21T03:53:46.501Z,0.00
2018-11-21T03:54:46.472Z,0.00
2018-11-21T03:55:46.476Z,0.00
2018-11-21T03:56:46.436Z,0.00
2018-11-21T03:57:46.419Z,0.00
2018-11-21T03:58:46.410Z,0.00
2018-11-21T03:59:46.412Z,0.00
2018-11-21T04:00:46.422Z,0.00
2018-11-21T04:01:46.386Z,0.00
2018-11-21T04:02:46.401Z,0.00
2018-11-21T04:03:46.414Z,0.00
2018-11-21T04:04:46.348Z,0.00
2018-11-21T04:05:46.339Z,0.00
2018-11-21T04:06:46.338Z,0.00
2018-11-21T04:07:46.312Z,0.00
2018-11-21T04:08:46.352Z,0.00
2018-11-21T04:09:46.311Z,0.00
2018-11-21T04:10:46.309Z,0.00
2018-11-21T04:11:46.272Z,0.00
2018-11-21T04:12:46.267Z,0.00
2018-11-21T04:13:46.288Z,0.00
2018-11-21T04:14:46.287Z,0.00
2018-11-21T04:15:46.246Z,0.00
2018-11-21T04:16:46.221Z,0.00
2018-11-21T04:17:46.212Z,0.00
2018-11-21T04:18:46.200Z,0.00
2018-11-21T04:19:46.221Z,0.00
2018-11-21T04:20:46.244Z,0.00
2018-11-21T04:21:46.167Z,0.00
2018-11-21T04:22:46.156Z,0.00
2018-11-21T04:23:46.149Z,0.00
2018-11-21T04:24:46.137Z,0.00
2018-11-21T04:25:46.167Z,0.00
2018-11-21T04:26:46.144Z,0.00
2018-11-21T04:27:46.123Z,0.00
2018-11-21T04:28:46.090Z,0.00
2018-11-21T04:29:46.088Z,0.00
2018-11-21T04:30:46.109Z,0.00
2018-11-21T04:31:46.069Z,0.00
2018-11-21T04:32:46.060Z,0.00
2018-11-21T04:33:46.071Z,0.00
2018-11-21T04:34:46.034Z,0.00
2018-11-21T04:35:46.023Z,0.00
2018-11-21T04:36:46.022Z,0.00
2018-11-21T04:37:46.039Z,0.00
2018-11-21T04:38:45.989Z,0.00
2018-11-21T04:39:46.058Z,0.00
2018-11-21T04:40:45.974Z,0.00
2018-11-21T04:41:45.964Z,0.00
2018-11-21T04:42:45.964Z,0.00
2018-11-21T04:43:45.959Z,0.00
2018-11-21T04:44:45.984Z,0.00
2018-11-21T04:45:45.927Z,0.00
2018-11-21T04:46:45.924Z,0.00
2018-11-21T04:47:45.914Z,0.00
2018-11-21T04:48:45.912Z,0.00
2018-11-21T04:49:45.933Z,0.00
2018-11-21T04:50:45.873Z,0.00
2018-11-21T04:51:45.857Z,0.00
2018-11-21T04:52:45.855Z,0.00
2018-11-21T04:53:45.833Z,0.00
2018-11-21T04:54:45.908Z,0.00
2018-11-21T04:55:45.835Z,0.00
2018-11-21T04:56:45.897Z,0.00
2018-11-21T04:57:45.794Z,0.00
2018-11-21T04:58:45.777Z,0.00
2018-11-21T04:59:45.833Z,0.00
2018-11-21T05:00:45.792Z,0.00
2018-11-21T05:01:45.802Z,0.00
2018-11-21T05:02:45.764Z,0.00
2018-11-21T05:03:45.731Z,0.00
2018-11-21T05:04:45.723Z,0.00
2018-11-21T05:05:45.703Z,0.00
2018-11-21T05:06:45.730Z,0.00
2018-11-21T05:07:45.711Z,0.00
2018-11-21T05:08:45.667Z,0.00
2018-11-21T05:09:45.663Z,0.00
2018-11-21T05:10:45.656Z,0.00
2018-11-21T05:11:45.687Z,0.00
2018-11-21T05:12:46.589Z,0.00
2018-11-21T05:13:45.634Z,0.00
2018-11-21T05:14:46.125Z,0.00
2018-11-21T05:15:45.605Z,0.00
2018-11-21T05:16:45.621Z,0.00
2018-11-21T05:17:45.590Z,0.00
2018-11-21T05:18:45.566Z,0.00
2018-11-21T05:19:45.560Z,0.00
2018-11-21T05:20:45.539Z,0.00
2018-11-21T05:21:45.581Z,0.00
2018-11-21T05:22:45.544Z,0.00
2018-11-21T05:23:45.513Z,0.00
2018-11-21T05:24:45.585Z,0.00
2018-11-21T05:25:45.499Z,0.00
2018-11-21T05:26:45.525Z,0.00
2018-11-21T05:27:45.484Z,0.00
2018-11-21T05:28:45.506Z,0.00
2018-11-21T05:29:45.453Z,0.00
2018-11-21T05:30:45.434Z,0.00
2018-11-21T05:31:45.477Z,0.00
2018-11-21T05:32:45.457Z,0.00
2018-11-21T05:33:45.404Z,0.00
2018-11-21T05:34:45.505Z,0.00
2018-11-21T05:35:45.400Z,0.00
2018-11-21T05:36:45.399Z,0.00
2018-11-21T05:37:45.423Z,0.00
2018-11-21T05:38:45.372Z,0.00
2018-11-21T05:39:45.341Z,0.00
2018-11-21T05:40:45.381Z,0.00
2018-11-21T05:41:45.361Z,0.00
2018-11-21T05:42:45.360Z,0.00
2018-11-21T05:43:45.342Z,0.00
2018-11-21T05:44:45.296Z,0.00
2018-11-21T05:45:45.288Z,0.00
2018-11-21T05:46:45.273Z,0.00
2018-11-21T05:47:45.264Z,0.00
2018-11-21T05:48:45.285Z,0.00
2018-11-21T05:49:45.268Z,0.00
2018-11-21T05:50:45.220Z,0.00
2018-11-21T05:51:45.210Z,0.00
2018-11-21T05:52:45.196Z,0.00
2018-11-21T05:53:45.222Z,0.00
2018-11-21T05:54:45.185Z,0.00
2018-11-21T05:55:45.190Z,0.00
2018-11-21T05:56:45.169Z,4.00
2018-11-21T05:57:45.199Z,4.00
2018-11-21T05:58:45.194Z,0.00
2018-11-21T05:59:45.188Z,4.00
2018-11-21T06:00:49.067Z,4.00
2018-11-21T06:01:45.099Z,4.00
2018-11-21T06:02:45.094Z,8.00
2018-11-21T06:03:45.129Z,8.00
2018-11-21T06:04:45.183Z,12.00
2018-11-21T06:05:45.136Z,12.00
2018-11-21T06:06:45.103Z,12.00
2018-11-21T06:07:45.048Z,20.00
2018-11-21T06:08:45.038Z,24.00
2018-11-21T06:09:45.022Z,28.00
2018-11-21T06:10:45.054Z,36.00
2018-11-21T06:11:44.992Z,40.00
2018-11-21T06:12:44.981Z,48.00
2018-11-21T06:13:44.983Z,56.00
2018-11-21T06:14:44.958Z,64.00
2018-11-21T06:15:44.983Z,76.00
2018-11-21T06:16:44.942Z,92.00
2018-11-21T06:17:48.328Z,108.00
2018-11-21T06:18:44.937Z,128.00
2018-11-21T06:19:44.907Z,144.00
2018-11-21T06:20:44.928Z,168.00
2018-11-21T06:21:44.898Z,188.00
2018-11-21T06:22:44.874Z,212.00
2018-11-21T06:23:44.877Z,240.00
2018-11-21T06:24:44.852Z,268.00
2018-11-21T06:25:44.901Z,300.00
2018-11-21T06:26:44.874Z,332.00
2018-11-21T06:27:44.818Z,364.00
2018-11-21T06:28:44.811Z,396.00
2018-11-21T06:29:44.802Z,428.00
2018-11-21T06:30:45.392Z,468.00
2018-11-21T06:31:44.813Z,504.00
2018-11-21T06:32:44.780Z,544.00
2018-11-21T06:33:44.758Z,584.00
2018-11-21T06:34:44.783Z,632.00
2018-11-21T06:35:44.731Z,672.00
2018-11-21T06:36:44.722Z,716.00
2018-11-21T06:37:44.715Z,760.00
2018-11-21T06:38:44.698Z,808.00
2018-11-21T06:39:44.726Z,852.00
2018-11-21T06:40:44.677Z,900.00
2018-11-21T06:41:44.663Z,948.00
2018-11-21T06:42:44.655Z,992.00
2018-11-21T06:43:44.645Z,1044.00
2018-11-21T06:44:44.680Z,1092.00
2018-11-21T06:45:44.628Z,1144.00
2018-11-21T06:46:44.627Z,1196.00
2018-11-21T06:47:44.601Z,1256.00
2018-11-21T06:48:44.589Z,1320.00
2018-11-21T06:49:44.623Z,1392.00
2018-11-21T06:50:44.573Z,1456.00
2018-11-21T06:51:44.568Z,1524.00
2018-11-21T06:52:44.573Z,1588.00
2018-11-21T06:53:44.539Z,1660.00
2018-11-21T06:54:44.563Z,1736.00
2018-11-21T06:55:44.516Z,1816.00
2018-11-21T06:56:44.638Z,1904.00
2018-11-21T06:57:44.503Z,1992.00
2018-11-21T06:58:44.499Z,2080.00
2018-11-21T06:59:44.520Z,2172.00
2018-11-21T07:00:44.483Z,2272.00
2018-11-21T07:01:44.462Z,2368.00
2018-11-21T07:02:44.462Z,2460.00
2018-11-21T07:03:44.442Z,2532.00
2018-11-21T07:04:44.464Z,2576.00
2018-11-21T07:05:44.447Z,2600.00
2018-11-21T07:06:44.405Z,2604.00
2018-11-21T07:07:44.441Z,2592.00
2018-11-21T07:08:44.384Z,2568.00
2018-11-21T07:09:44.452Z,2544.00
2018-11-21T07:10:44.443Z,2528.00
2018-11-21T07:11:44.400Z,2516.00
2018-11-21T07:12:44.405Z,2516.00
2018-11-21T07:13:44.347Z,2532.00
2018-11-21T07:14:44.326Z,2548.00
2018-11-21T07:15:44.327Z,2572.00
2018-11-21T07:16:44.285Z,2592.00
2018-11-21T07:17:44.332Z,2620.00
2018-11-21T07:18:44.274Z,2648.00
2018-11-21T07:19:44.249Z,2672.00
2018-11-21T07:20:44.251Z,2696.00
2018-11-21T07:21:44.229Z,2712.00
2018-11-21T07:22:44.251Z,2736.00
2018-11-21T07:23:44.208Z,2752.00
2018-11-21T07:24:44.246Z,2772.00
2018-11-21T07:25:44.197Z,2784.00
2018-11-21T07:26:44.176Z,2800.00
2018-11-21T07:27:44.160Z,2820.00
2018-11-21T07:28:44.155Z,2836.00
2018-11-21T07:29:44.195Z,2852.00
2018-11-21T07:30:44.131Z,2868.00
2018-11-21T07:31:44.132Z,2892.00
2018-11-21T07:32:44.112Z,2916.00
2018-11-21T07:33:46.660Z,2936.00
2018-11-21T07:34:44.123Z,2960.00
2018-11-21T07:35:44.083Z,2984.00
2018-11-21T07:36:44.065Z,3020.00
2018-11-21T07:37:44.078Z,3048.00
2018-11-21T07:38:44.046Z,3080.00
2018-11-21T07:39:44.028Z,3116.00
2018-11-21T07:40:44.030Z,3156.00
2018-11-21T07:41:44.011Z,3196.00
2018-11-21T07:42:44.001Z,3228.00
2018-11-21T07:43:43.994Z,3268.00
2018-11-21T07:44:44.015Z,3304.00
2018-11-21T07:45:43.960Z,3336.00
2018-11-21T07:46:43.956Z,3364.00
2018-11-21T07:47:43.948Z,3392.00
2018-11-21T07:48:43.933Z,3420.00
2018-11-21T07:49:43.960Z,3444.00
2018-11-21T07:50:43.936Z,3472.00
2018-11-21T07:51:43.900Z,3504.00
2018-11-21T07:52:43.883Z,3536.00
2018-11-21T07:53:43.875Z,3572.00
2018-11-21T07:54:43.900Z,3608.00
2018-11-21T07:55:43.909Z,3648.00
2018-11-21T07:56:43.886Z,3684.00
2018-11-21T07:57:43.834Z,3728.00
2018-11-21T07:58:43.825Z,3764.00
2018-11-21T07:59:43.816Z,3796.00
2018-11-21T08:00:43.797Z,3832.00
2018-11-21T08:01:43.845Z,3872.00
2018-11-21T08:02:43.811Z,3904.00
2018-11-21T08:03:43.764Z,3944.00
2018-11-21T08:04:43.757Z,3988.00
2018-11-21T08:05:44.387Z,4032.00
2018-11-21T08:06:43.768Z,4080.00
2018-11-21T08:07:43.731Z,4132.00
2018-11-21T08:08:43.727Z,4176.00
2018-11-21T08:09:43.716Z,4216.00
2018-11-21T08:10:43.689Z,4260.00
2018-11-21T08:11:43.708Z,4300.00
2018-11-21T08:12:43.670Z,4332.00
2018-11-21T08:13:43.663Z,4380.00
2018-11-21T08:14:43.693Z,4432.00
2018-11-21T08:15:43.631Z,4484.00
2018-11-21T08:16:43.624Z,4532.00
2018-11-21T08:17:43.608Z,4584.00
2018-11-21T08:18:43.602Z,4632.00
2018-11-21T08:19:43.625Z,4676.00
2018-11-21T08:20:43.614Z,4712.00
2018-11-21T08:21:43.563Z,4748.00
2018-11-21T08:22:43.556Z,4788.00
2018-11-21T08:23:43.542Z,4816.00
2018-11-21T08:24:43.576Z,4844.00
2018-11-21T08:25:43.537Z,4868.00
2018-11-21T08:26:43.517Z,4888.00
2018-11-21T08:27:43.523Z,4892.00
2018-11-21T08:28:43.490Z,4892.00
2018-11-21T08:29:43.531Z,4888.00
2018-11-21T08:30:43.476Z,4888.00
2018-11-21T08:31:43.464Z,4892.00
2018-11-21T08:32:44.424Z,4892.00
2018-11-21T08:33:43.453Z,4896.00
2018-11-21T08:34:43.459Z,4904.00
2018-11-21T08:35:43.449Z,4916.00
2018-11-21T08:36:43.411Z,4928.00
2018-11-21T08:37:43.390Z,4940.00
2018-11-21T08:38:43.386Z,4952.00
2018-11-21T08:39:43.438Z,4964.00
2018-11-21T08:40:43.363Z,4976.00
2018-11-21T08:41:43.348Z,4980.00
2018-11-21T08:42:43.342Z,4988.00
2018-11-21T08:43:43.331Z,4996.00
2018-11-21T08:44:43.358Z,5016.00
2018-11-21T08:45:43.317Z,5028.00
2018-11-21T08:46:43.316Z,5044.00
2018-11-21T08:47:43.291Z,5084.00
2018-11-21T08:48:43.279Z,5132.00
2018-11-21T08:49:43.296Z,5168.00
2018-11-21T08:50:43.261Z,5208.00
2018-11-21T08:51:43.243Z,5256.00
2018-11-21T08:52:43.251Z,5296.00
2018-11-21T08:53:43.218Z,5324.00
2018-11-21T08:54:43.248Z,5344.00
2018-11-21T08:55:43.238Z,5352.00
2018-11-21T08:56:43.187Z,5372.00
2018-11-21T08:57:43.173Z,5392.00
2018-11-21T08:58:43.183Z,5376.00
2018-11-21T08:59:43.160Z,5368.00
2018-11-21T09:00:43.177Z,5380.00
2018-11-21T09:01:43.181Z,5396.00
2018-11-21T09:02:43.120Z,5420.00
2018-11-21T09:03:43.114Z,5576.00
2018-11-21T09:04:43.116Z,5928.00
2018-11-21T09:05:43.102Z,9076.00
2018-11-21T09:06:43.118Z,15424.00
2018-11-21T09:07:43.093Z,23936.00
2018-11-21T09:08:43.058Z,31936.00
2018-11-21T09:09:43.046Z,33344.00
2018-11-21T09:10:43.066Z,33600.00
2018-11-21T09:11:43.081Z,35680.00
2018-11-21T09:12:43.044Z,37120.00
2018-11-21T09:13:43.014Z,44512.00
2018-11-21T09:14:42.997Z,51904.00
2018-11-21T09:15:43.022Z,49568.00
2018-11-21T09:16:42.980Z,51200.00
2018-11-21T09:17:42.961Z,49600.00
2018-11-21T09:18:42.987Z,49280.00
2018-11-21T09:19:42.953Z,48160.00
2018-11-21T09:20:42.964Z,46528.00
2018-11-21T09:21:42.933Z,49888.00
2018-11-21T09:22:42.945Z,52608.00
2018-11-21T09:23:42.902Z,55872.00
2018-11-21T09:24:42.900Z,53472.00
2018-11-21T09:25:42.905Z,53376.00
2018-11-21T09:26:42.868Z,50656.00
2018-11-21T09:27:42.895Z,45664.00
2018-11-21T09:28:42.851Z,46624.00
2018-11-21T09:29:42.853Z,45824.00
2018-11-21T09:30:42.835Z,42688.00
2018-11-21T09:31:42.810Z,44032.00
2018-11-21T09:32:42.867Z,40352.00
2018-11-21T09:33:42.790Z,37696.00
2018-11-21T09:34:42.840Z,39840.00
2018-11-21T09:35:42.774Z,43296.00
2018-11-21T09:36:42.771Z,48032.00
2018-11-21T09:37:42.745Z,54848.00
2018-11-21T09:38:42.759Z,59904.00
2018-11-21T09:39:42.761Z,62688.00
2018-11-21T09:40:42.780Z,60992.00
2018-11-21T09:41:42.702Z,58080.00
2018-11-21T09:42:42.715Z,56736.00
2018-11-21T09:43:42.691Z,56480.00
2018-11-21T09:44:42.737Z,55648.00
2018-11-21T09:45:42.859Z,56352.00
2018-11-21T09:46:42.664Z,59712.00
2018-11-21T09:47:43.247Z,59168.00
2018-11-21T09:48:42.650Z,56384.00
2018-11-21T09:49:42.696Z,58880.00
2018-11-21T09:50:42.738Z,60448.00
2018-11-21T09:51:42.620Z,60512.00
2018-11-21T09:52:42.633Z,61344.00
2018-11-21T09:53:42.583Z,58464.00
2018-11-21T09:54:42.617Z,51936.00
2018-11-21T09:55:42.569Z,60960.00
2018-11-21T09:56:42.544Z,66208.00
2018-11-21T09:57:42.579Z,65728.00
2018-11-21T09:58:42.537Z,74016.00
2018-11-21T09:59:42.513Z,68416.00
2018-11-21T10:00:42.540Z,69024.00
2018-11-21T10:01:42.484Z,66944.00
2018-11-21T10:02:42.511Z,60832.00
2018-11-21T10:03:42.742Z,62784.00
2018-11-21T10:04:42.461Z,67904.00
2018-11-21T10:05:42.447Z,64672.00
2018-11-21T10:06:42.449Z,64864.00
2018-11-21T10:07:42.455Z,62528.00
2018-11-21T10:08:42.493Z,59552.00
2018-11-21T10:09:42.421Z,60256.00
2018-11-21T10:10:42.383Z,61088.00
2018-11-21T10:11:42.394Z,60544.00
2018-11-21T10:12:42.358Z,59840.00
2018-11-21T10:13:42.383Z,57760.00
2018-11-21T10:14:42.384Z,56256.00
2018-11-21T10:15:42.330Z,53856.00
2018-11-21T10:16:42.337Z,52896.00
2018-11-21T10:17:42.329Z,53440.00
2018-11-21T10:18:42.344Z,55872.00
2018-11-21T10:19:42.448Z,59008.00
2018-11-21T10:20:42.291Z,57568.00
2018-11-21T10:21:42.270Z,60480.00
2018-11-21T10:22:42.255Z,64480.00
2018-11-21T10:23:42.304Z,67136.00
2018-11-21T10:24:42.236Z,68672.00
2018-11-21T10:25:42.248Z,65152.00
2018-11-21T10:26:42.214Z,64864.00
2018-11-21T10:27:42.224Z,63552.00
2018-11-21T10:28:42.228Z,69728.00
2018-11-21T10:29:42.187Z,74912.00
2018-11-21T10:30:42.166Z,76576.00
2018-11-21T10:31:42.152Z,71616.00
2018-11-21T10:32:42.154Z,68640.00
2018-11-21T10:33:42.210Z,70208.00
2018-11-21T10:34:42.132Z,72320.00
2018-11-21T10:35:42.113Z,73024.00
2018-11-21T10:36:42.102Z,73824.00
2018-11-21T10:37:42.089Z,75392.00
2018-11-21T10:38:42.139Z,75520.00
2018-11-21T10:39:42.081Z,55744.00
2018-11-21T10:40:42.055Z,51840.00
2018-11-21T10:41:42.051Z,59808.00
2018-11-21T10:42:42.043Z,66688.00
2018-11-21T10:43:42.031Z,60896.00
2018-11-21T10:44:42.030Z,63104.00
2018-11-21T10:45:42.033Z,60384.00
2018-11-21T10:46:42.009Z,62848.00
2018-11-21T10:47:41.978Z,61024.00
2018-11-21T10:48:41.991Z,61408.00
2018-11-21T10:49:42.000Z,63072.00
2018-11-21T10:50:41.947Z,59776.00
2018-11-21T10:51:41.993Z,53856.00
2018-11-21T10:52:41.923Z,53248.00
2018-11-21T10:53:41.916Z,49568.00
2018-11-21T10:54:41.905Z,43424.00
2018-11-21T10:55:41.884Z,41728.00
2018-11-21T10:56:41.920Z,48672.00
2018-11-21T10:57:41.891Z,51072.00
2018-11-21T10:58:41.856Z,55168.00
2018-11-21T10:59:41.846Z,53792.00
2018-11-21T11:00:41.832Z,58976.00
2018-11-21T11:01:41.924Z,57536.00
2018-11-21T11:02:41.849Z,56192.00
2018-11-21T11:03:41.827Z,49984.00
2018-11-21T11:04:41.801Z,50304.00
2018-11-21T11:05:41.778Z,49664.00
2018-11-21T11:06:41.822Z,52544.00
2018-11-21T11:07:41.759Z,51808.00
2018-11-21T11:08:41.750Z,50112.00
2018-11-21T11:09:41.750Z,52704.00
2018-11-21T11:10:41.730Z,48800.00
2018-11-21T11:11:41.749Z,49216.00
2018-11-21T11:12:41.714Z,45376.00
2018-11-21T11:13:41.697Z,44192.00
2018-11-21T11:14:41.707Z,46592.00
2018-11-21T11:15:41.674Z,48224.00
2018-11-21T11:16:41.699Z,49600.00
2018-11-21T11:17:41.694Z,49600.00
2018-11-21T11:18:41.639Z,49664.00
2018-11-21T11:19:41.628Z,51488.00
2018-11-21T11:20:41.624Z,52192.00
2018-11-21T11:21:41.606Z,48832.00
2018-11-21T11:22:41.633Z,35456.00
2018-11-21T11:23:41.637Z,36576.00
2018-11-21T11:24:41.591Z,43840.00
2018-11-21T11:25:41.571Z,43552.00
2018-11-21T11:26:41.552Z,41632.00
2018-11-21T11:27:41.553Z,40992.00
2018-11-21T11:28:41.569Z,42176.00
2018-11-21T11:29:41.517Z,47168.00
2018-11-21T11:30:41.506Z,45408.00
2018-11-21T11:31:41.500Z,47968.00
2018-11-21T11:32:41.486Z,48832.00
2018-11-21T11:33:41.519Z,49152.00
2018-11-21T11:34:41.471Z,48768.00
2018-11-21T11:35:41.455Z,46496.00
2018-11-21T11:36:41.435Z,43200.00
2018-11-21T11:37:41.427Z,44864.00
2018-11-21T11:38:41.468Z,38496.00
2018-11-21T11:39:41.409Z,35648.00
2018-11-21T11:40:41.447Z,22560.00
2018-11-21T11:41:41.397Z,21120.00
2018-11-21T11:42:41.372Z,32672.00
2018-11-21T11:43:41.413Z,41152.00
2018-11-21T11:44:41.377Z,40192.00
2018-11-21T11:45:41.342Z,48160.00
2018-11-21T11:46:41.501Z,58976.00
2018-11-21T11:47:41.321Z,56608.00
2018-11-21T11:48:41.375Z,50560.00
2018-11-21T11:49:41.295Z,48384.00
2018-11-21T11:50:41.303Z,50016.00
2018-11-21T11:51:41.272Z,47776.00
2018-11-21T11:52:41.259Z,50368.00
2018-11-21T11:53:41.289Z,52640.00
2018-11-21T11:54:41.272Z,54016.00
2018-11-21T11:55:41.238Z,64480.00
2018-11-21T11:56:41.218Z,73632.00
2018-11-21T11:57:41.253Z,70784.00
2018-11-21T11:58:41.245Z,67008.00
2018-11-21T11:59:41.203Z,63136.00
2018-11-21T12:00:41.179Z,61600.00
2018-11-21T12:01:41.185Z,63776.00
2018-11-21T12:02:41.158Z,63136.00
2018-11-21T12:03:41.187Z,61824.00
2018-11-21T12:04:42.155Z,59744.00
2018-11-21T12:05:41.138Z,54944.00
2018-11-21T12:06:41.108Z,46656.00
2018-11-21T12:07:41.164Z,46560.00
2018-11-21T12:08:41.743Z,54912.00
2018-11-21T12:09:41.119Z,40480.00
2018-11-21T12:10:41.094Z,28480.00
2018-11-21T12:11:41.063Z,20768.00
2018-11-21T12:12:41.051Z,19072.00
2018-11-21T12:13:41.053Z,21248.00
2018-11-21T12:14:41.054Z,29248.00
2018-11-21T12:15:41.030Z,31296.00
2018-11-21T12:16:41.033Z,32128.00
2018-11-21T12:17:41.000Z,25248.00
2018-11-21T12:18:40.995Z,24352.00
2018-11-21T12:19:40.967Z,23232.00
2018-11-21T12:20:41.038Z,31136.00
2018-11-21T12:21:40.953Z,36128.00
2018-11-21T12:22:40.957Z,40448.00
2018-11-21T12:23:40.953Z,39040.00
2018-11-21T12:24:40.939Z,38304.00
2018-11-21T12:25:40.978Z,38528.00
2018-11-21T12:26:40.924Z,39424.00
2018-11-21T12:27:40.897Z,40448.00
2018-11-21T12:28:40.875Z,40800.00
2018-11-21T12:29:42.024Z,44384.00
2018-11-21T12:30:40.939Z,47456.00
2018-11-21T12:31:40.866Z,46368.00
2018-11-21T12:32:40.841Z,46464.00
2018-11-21T12:33:40.835Z,47168.00
2018-11-21T12:34:40.846Z,42176.00